sensor_id;sensor_type;location;lat;lon;timestamp;temperature;humidity
6377;DHT22;3221;48.858;10.128;2023-01-31T00:01:34;0.30;99.90
6377;DHT22;3221;48.858;10.128;2023-01-31T00:04:05;0.40;99.90
6377;DHT22;3221;48.858;10.128;2023-01-31T00:06:35;0.30;99.90
6377;DHT22;3221;48.858;10.128;2023-01-31T00:09:05;0.30;99.90
6377;DHT22;3221;48.858;10.128;2023-01-31T00:11:32;0.20;99.90
6377;DHT22;3221;48.858;10.128;2023-01-31T00:14:01;0.20;99.90
6377;DHT22;3221;48.858;10.128;2023-01-31T00:16:28;0.10;99.90
6377;DHT22;3221;48.858;10.128;2023-01-31T00:18:56;0.20;99.90
6377;DHT22;3221;48.858;10.128;2023-01-31T00:21:25;0.30;99.90
6377;DHT22;3221;48.858;10.128;2023-01-31T00:23:53;0.20;99.90
6377;DHT22;3221;48.858;10.128;2023-01-31T00:26:25;0.20;99.90
6377;DHT22;3221;48.858;10.128;2023-01-31T00:28:54;0.20;99.90
6377;DHT22;3221;48.858;10.128;2023-01-31T00:31:23;0.20;99.90
6377;DHT22;3221;48.858;10.128;2023-01-31T00:33:52;0.30;99.90
6377;DHT22;3221;48.858;10.128;2023-01-31T00:36:24;0.20;99.90
6377;DHT22;3221;48.858;10.128;2023-01-31T00:38:53;0.30;99.90
6377;DHT22;3221;48.858;10.128;2023-01-31T00:41:21;0.20;99.90
6377;DHT22;3221;48.858;10.128;2023-01-31T00:43:49;0.20;99.90
6377;DHT22;3221;48.858;10.128;2023-01-31T00:46:16;0.20;99.90
6377;DHT22;3221;48.858;10.128;2023-01-31T00:48:44;0.20;99.90
6377;DHT22;3221;48.858;10.128;2023-01-31T00:51:11;0.30;99.90
6377;DHT22;3221;48.858;10.128;2023-01-31T00:53:38;0.30;99.90
6377;DHT22;3221;48.858;10.128;2023-01-31T00:56:13;0.30;99.90
6377;DHT22;3221;48.858;10.128;2023-01-31T00:58:40;0.30;99.90
6377;DHT22;3221;48.858;10.128;2023-01-31T01:01:13;0.20;99.90
6377;DHT22;3221;48.858;10.128;2023-01-31T01:03:42;0.30;99.90
6377;DHT22;3221;48.858;10.128;2023-01-31T01:06:10;0.20;99.90
6377;DHT22;3221;48.858;10.128;2023-01-31T01:08:38;0.20;99.90
6377;DHT22;3221;48.858;10.128;2023-01-31T01:11:16;0.20;99.90
6377;DHT22;3221;48.858;10.128;2023-01-31T01:13:44;0.30;99.90
6377;DHT22;3221;48.858;10.128;2023-01-31T01:16:18;0.20;99.90
6377;DHT22;3221;48.858;10.128;2023-01-31T01:18:46;0.20;99.90
6377;DHT22;3221;48.858;10.128;2023-01-31T01:21:23;0.30;99.90
6377;DHT22;3221;48.858;10.128;2023-01-31T01:23:51;0.20;99.90
6377;DHT22;3221;48.858;10.128;2023-01-31T01:26:22;0.30;99.90
6377;DHT22;3221;48.858;10.128;2023-01-31T01:28:51;0.20;99.90
6377;DHT22;3221;48.858;10.128;2023-01-31T01:31:19;0.20;99.90
6377;DHT22;3221;48.858;10.128;2023-01-31T01:33:47;0.30;99.90
6377;DHT22;3221;48.858;10.128;2023-01-31T01:36:17;0.20;99.90
6377;DHT22;3221;48.858;10.128;2023-01-31T01:38:48;0.20;99.90
6377;DHT22;3221;48.858;10.128;2023-01-31T01:41:15;0.20;99.90
6377;DHT22;3221;48.858;10.128;2023-01-31T01:43:51;0.20;99.90
6377;DHT22;3221;48.858;10.128;2023-01-31T01:46:37;0.30;99.90
6377;DHT22;3221;48.858;10.128;2023-01-31T01:49:13;0.30;99.90
6377;DHT22;3221;48.858;10.128;2023-01-31T01:51:44;0.30;99.90
6377;DHT22;3221;48.858;10.128;2023-01-31T01:54:19;0.30;99.90
6377;DHT22;3221;48.858;10.128;2023-01-31T02:00:48;0.30;99.90
6377;DHT22;3221;48.858;10.128;2023-01-31T02:06:06;0.20;99.90
6377;DHT22;3221;48.858;10.128;2023-01-31T02:08:35;0.30;99.90
6377;DHT22;3221;48.858;10.128;2023-01-31T02:11:18;0.20;99.90
6377;DHT22;3221;48.858;10.128;2023-01-31T02:13:47;0.30;99.90
6377;DHT22;3221;48.858;10.128;2023-01-31T02:16:15;0.20;99.90
6377;DHT22;3221;48.858;10.128;2023-01-31T02:18:43;0.20;99.90
6377;DHT22;3221;48.858;10.128;2023-01-31T02:26:49;0.20;99.90
6377;DHT22;3221;48.858;10.128;2023-01-31T02:46:17;0.30;99.90
6377;DHT22;3221;48.858;10.128;2023-01-31T02:48:59;0.30;99.90
6377;DHT22;3221;48.858;10.128;2023-01-31T02:51:32;0.30;99.90
6377;DHT22;3221;48.858;10.128;2023-01-31T02:54:15;0.30;99.90
6377;DHT22;3221;48.858;10.128;2023-01-31T02:56:46;0.30;99.90
6377;DHT22;3221;48.858;10.128;2023-01-31T02:59:23;0.30;99.90
6377;DHT22;3221;48.858;10.128;2023-01-31T03:01:57;0.20;99.90
6377;DHT22;3221;48.858;10.128;2023-01-31T03:04:30;0.30;99.90
6377;DHT22;3221;48.858;10.128;2023-01-31T03:07:06;0.20;99.90
6377;DHT22;3221;48.858;10.128;2023-01-31T03:12:49;0.20;99.90
6377;DHT22;3221;48.858;10.128;2023-01-31T03:18:45;0.30;99.90
6377;DHT22;3221;48.858;10.128;2023-01-31T03:21:26;0.20;99.90
6377;DHT22;3221;48.858;10.128;2023-01-31T03:23:56;0.20;99.90
6377;DHT22;3221;48.858;10.128;2023-01-31T03:26:25;0.30;99.90
6377;DHT22;3221;48.858;10.128;2023-01-31T03:28:53;0.20;99.90
6377;DHT22;3221;48.858;10.128;2023-01-31T03:31:27;0.20;99.90
6377;DHT22;3221;48.858;10.128;2023-01-31T03:34:00;0.20;99.90
6377;DHT22;3221;48.858;10.128;2023-01-31T03:42:08;0.30;99.90
6377;DHT22;3221;48.858;10.128;2023-01-31T03:44:46;0.20;99.90
6377;DHT22;3221;48.858;10.128;2023-01-31T03:47:32;0.30;99.90
6377;DHT22;3221;48.858;10.128;2023-01-31T03:50:08;0.30;99.90
6377;DHT22;3221;48.858;10.128;2023-01-31T03:57:21;0.30;99.90
6377;DHT22;3221;48.858;10.128;2023-01-31T03:59:52;0.30;99.90
6377;DHT22;3221;48.858;10.128;2023-01-31T04:02:24;0.30;99.90
6377;DHT22;3221;48.858;10.128;2023-01-31T04:05:07;0.30;99.90
6377;DHT22;3221;48.858;10.128;2023-01-31T04:07:38;0.40;99.90
6377;DHT22;3221;48.858;10.128;2023-01-31T04:10:12;0.30;99.90
6377;DHT22;3221;48.858;10.128;2023-01-31T04:12:40;0.30;99.90
6377;DHT22;3221;48.858;10.128;2023-01-31T04:15:08;0.30;99.90
6377;DHT22;3221;48.858;10.128;2023-01-31T04:17:35;0.20;99.90
6377;DHT22;3221;48.858;10.128;2023-01-31T04:20:04;0.30;99.90
6377;DHT22;3221;48.858;10.128;2023-01-31T04:22:31;0.30;99.90
6377;DHT22;3221;48.858;10.128;2023-01-31T04:24:58;0.30;99.90
6377;DHT22;3221;48.858;10.128;2023-01-31T04:27:25;0.20;99.90
6377;DHT22;3221;48.858;10.128;2023-01-31T04:29:52;0.20;99.90
6377;DHT22;3221;48.858;10.128;2023-01-31T04:32:19;0.20;99.90
6377;DHT22;3221;48.858;10.128;2023-01-31T04:34:46;0.30;99.90
6377;DHT22;3221;48.858;10.128;2023-01-31T04:37:12;0.30;99.90
6377;DHT22;3221;48.858;10.128;2023-01-31T04:39:39;0.20;99.90
6377;DHT22;3221;48.858;10.128;2023-01-31T04:42:06;0.30;99.90
6377;DHT22;3221;48.858;10.128;2023-01-31T04:44:33;0.30;99.90
6377;DHT22;3221;48.858;10.128;2023-01-31T04:47:00;0.30;99.90
6377;DHT22;3221;48.858;10.128;2023-01-31T04:49:27;0.30;99.90
6377;DHT22;3221;48.858;10.128;2023-01-31T04:51:54;0.20;99.90
6377;DHT22;3221;48.858;10.128;2023-01-31T04:54:20;0.20;99.90
6377;DHT22;3221;48.858;10.128;2023-01-31T04:56:47;0.30;99.90
6377;DHT22;3221;48.858;10.128;2023-01-31T04:59:14;0.30;99.90
6377;DHT22;3221;48.858;10.128;2023-01-31T05:01:41;0.30;99.90
6377;DHT22;3221;48.858;10.128;2023-01-31T05:04:08;0.30;99.90
6377;DHT22;3221;48.858;10.128;2023-01-31T05:06:35;0.20;99.90
6377;DHT22;3221;48.858;10.128;2023-01-31T05:09:02;0.20;99.90
6377;DHT22;3221;48.858;10.128;2023-01-31T05:11:29;0.30;99.90
6377;DHT22;3221;48.858;10.128;2023-01-31T05:13:55;0.30;99.90
6377;DHT22;3221;48.858;10.128;2023-01-31T05:16:22;0.20;99.90
6377;DHT22;3221;48.858;10.128;2023-01-31T05:18:49;0.30;99.90
6377;DHT22;3221;48.858;10.128;2023-01-31T05:21:16;0.30;99.90
6377;DHT22;3221;48.858;10.128;2023-01-31T05:23:43;0.20;99.90
6377;DHT22;3221;48.858;10.128;2023-01-31T05:26:10;0.30;99.90
6377;DHT22;3221;48.858;10.128;2023-01-31T05:28:37;0.20;99.90
6377;DHT22;3221;48.858;10.128;2023-01-31T05:31:06;0.20;99.90
6377;DHT22;3221;48.858;10.128;2023-01-31T05:33:33;0.20;99.90
6377;DHT22;3221;48.858;10.128;2023-01-31T05:36:01;0.30;99.90
6377;DHT22;3221;48.858;10.128;2023-01-31T05:38:28;0.30;99.90
6377;DHT22;3221;48.858;10.128;2023-01-31T05:40:55;0.30;99.90
6377;DHT22;3221;48.858;10.128;2023-01-31T05:43:21;0.30;99.90
6377;DHT22;3221;48.858;10.128;2023-01-31T05:45:48;0.30;99.90
6377;DHT22;3221;48.858;10.128;2023-01-31T05:48:15;0.30;99.90
6377;DHT22;3221;48.858;10.128;2023-01-31T05:50:42;0.30;99.90
6377;DHT22;3221;48.858;10.128;2023-01-31T05:53:09;0.40;99.90
6377;DHT22;3221;48.858;10.128;2023-01-31T05:55:36;0.20;99.90
6377;DHT22;3221;48.858;10.128;2023-01-31T05:58:03;0.30;99.90
6377;DHT22;3221;48.858;10.128;2023-01-31T06:00:30;0.30;99.90
6377;DHT22;3221;48.858;10.128;2023-01-31T06:02:58;0.30;99.90
6377;DHT22;3221;48.858;10.128;2023-01-31T06:05:26;0.30;99.90
6377;DHT22;3221;48.858;10.128;2023-01-31T06:07:53;0.30;99.90
6377;DHT22;3221;48.858;10.128;2023-01-31T06:10:20;0.30;99.90
6377;DHT22;3221;48.858;10.128;2023-01-31T06:12:48;0.30;99.90
6377;DHT22;3221;48.858;10.128;2023-01-31T06:15:14;0.30;99.90
6377;DHT22;3221;48.858;10.128;2023-01-31T06:17:42;0.30;99.90
6377;DHT22;3221;48.858;10.128;2023-01-31T06:20:09;0.30;99.90
6377;DHT22;3221;48.858;10.128;2023-01-31T06:22:36;0.30;99.90
6377;DHT22;3221;48.858;10.128;2023-01-31T06:25:03;0.30;99.90
6377;DHT22;3221;48.858;10.128;2023-01-31T06:27:31;0.30;99.90
6377;DHT22;3221;48.858;10.128;2023-01-31T06:29:59;0.30;99.90
6377;DHT22;3221;48.858;10.128;2023-01-31T06:32:26;0.30;99.90
6377;DHT22;3221;48.858;10.128;2023-01-31T06:34:52;0.30;99.90
6377;DHT22;3221;48.858;10.128;2023-01-31T06:37:19;0.20;99.90
6377;DHT22;3221;48.858;10.128;2023-01-31T06:39:46;0.30;99.90
6377;DHT22;3221;48.858;10.128;2023-01-31T06:42:13;0.30;99.90
6377;DHT22;3221;48.858;10.128;2023-01-31T06:44:40;0.20;99.90
6377;DHT22;3221;48.858;10.128;2023-01-31T06:47:06;0.20;99.90
6377;DHT22;3221;48.858;10.128;2023-01-31T06:49:33;0.20;99.90
6377;DHT22;3221;48.858;10.128;2023-01-31T06:52:00;0.20;99.90
6377;DHT22;3221;48.858;10.128;2023-01-31T06:54:27;0.20;99.90
6377;DHT22;3221;48.858;10.128;2023-01-31T06:56:54;0.20;99.90
6377;DHT22;3221;48.858;10.128;2023-01-31T06:59:20;0.20;99.90
6377;DHT22;3221;48.858;10.128;2023-01-31T07:01:47;0.20;99.90
6377;DHT22;3221;48.858;10.128;2023-01-31T07:04:14;0.20;99.90
6377;DHT22;3221;48.858;10.128;2023-01-31T07:06:41;0.20;99.90
6377;DHT22;3221;48.858;10.128;2023-01-31T07:09:08;0.20;99.90
6377;DHT22;3221;48.858;10.128;2023-01-31T07:11:36;0.30;99.90
6377;DHT22;3221;48.858;10.128;2023-01-31T07:14:04;0.30;99.90
6377;DHT22;3221;48.858;10.128;2023-01-31T07:16:30;0.20;99.90
6377;DHT22;3221;48.858;10.128;2023-01-31T07:18:57;0.30;99.90
6377;DHT22;3221;48.858;10.128;2023-01-31T07:21:24;0.30;99.90
6377;DHT22;3221;48.858;10.128;2023-01-31T07:23:51;0.30;99.90
6377;DHT22;3221;48.858;10.128;2023-01-31T07:26:18;0.30;99.90
6377;DHT22;3221;48.858;10.128;2023-01-31T07:28:45;0.30;99.90
6377;DHT22;3221;48.858;10.128;2023-01-31T07:31:13;0.30;99.90
6377;DHT22;3221;48.858;10.128;2023-01-31T07:33:41;0.30;99.90
6377;DHT22;3221;48.858;10.128;2023-01-31T07:36:11;0.30;99.90
6377;DHT22;3221;48.858;10.128;2023-01-31T07:38:39;0.20;99.90
6377;DHT22;3221;48.858;10.128;2023-01-31T07:41:06;0.30;99.90
6377;DHT22;3221;48.858;10.128;2023-01-31T07:43:35;0.30;99.90
6377;DHT22;3221;48.858;10.128;2023-01-31T07:46:05;0.30;99.90
6377;DHT22;3221;48.858;10.128;2023-01-31T07:48:34;0.30;99.90
6377;DHT22;3221;48.858;10.128;2023-01-31T07:51:02;0.30;99.90
6377;DHT22;3221;48.858;10.128;2023-01-31T07:53:31;0.30;99.90
6377;DHT22;3221;48.858;10.128;2023-01-31T07:56:09;0.30;99.90
6377;DHT22;3221;48.858;10.128;2023-01-31T07:58:37;0.30;99.90
6377;DHT22;3221;48.858;10.128;2023-01-31T08:01:04;0.30;99.90
6377;DHT22;3221;48.858;10.128;2023-01-31T08:06:31;0.30;99.90
6377;DHT22;3221;48.858;10.128;2023-01-31T08:09:00;0.30;99.90
6377;DHT22;3221;48.858;10.128;2023-01-31T08:11:26;0.30;99.90
6377;DHT22;3221;48.858;10.128;2023-01-31T08:13:54;0.20;99.90
6377;DHT22;3221;48.858;10.128;2023-01-31T08:16:21;0.20;99.90
6377;DHT22;3221;48.858;10.128;2023-01-31T08:18:48;0.20;99.90
6377;DHT22;3221;48.858;10.128;2023-01-31T08:21:15;0.20;99.90
6377;DHT22;3221;48.858;10.128;2023-01-31T08:23:42;0.20;99.90
6377;DHT22;3221;48.858;10.128;2023-01-31T08:26:13;0.20;99.90
6377;DHT22;3221;48.858;10.128;2023-01-31T08:28:42;0.20;99.90
6377;DHT22;3221;48.858;10.128;2023-01-31T08:31:13;0.20;99.90
6377;DHT22;3221;48.858;10.128;2023-01-31T08:33:40;0.30;99.90
6377;DHT22;3221;48.858;10.128;2023-01-31T08:38:38;0.20;99.90
6377;DHT22;3221;48.858;10.128;2023-01-31T08:41:05;0.20;99.90
6377;DHT22;3221;48.858;10.128;2023-01-31T08:43:32;0.30;99.90
6377;DHT22;3221;48.858;10.128;2023-01-31T08:46:18;0.30;99.90
6377;DHT22;3221;48.858;10.128;2023-01-31T08:48:45;0.30;99.90
6377;DHT22;3221;48.858;10.128;2023-01-31T08:51:13;0.30;99.90
6377;DHT22;3221;48.858;10.128;2023-01-31T08:53:41;0.20;99.90
6377;DHT22;3221;48.858;10.128;2023-01-31T08:56:13;0.20;99.90
6377;DHT22;3221;48.858;10.128;2023-01-31T08:58:41;0.30;99.90
6377;DHT22;3221;48.858;10.128;2023-01-31T09:01:13;0.30;99.90
6377;DHT22;3221;48.858;10.128;2023-01-31T09:03:40;0.30;99.90
6377;DHT22;3221;48.858;10.128;2023-01-31T09:06:20;0.30;99.90
6377;DHT22;3221;48.858;10.128;2023-01-31T09:08:48;0.30;99.90
6377;DHT22;3221;48.858;10.128;2023-01-31T09:11:15;0.30;99.90
6377;DHT22;3221;48.858;10.128;2023-01-31T09:13:45;0.30;99.90
6377;DHT22;3221;48.858;10.128;2023-01-31T09:16:13;0.30;99.90
6377;DHT22;3221;48.858;10.128;2023-01-31T09:18:41;0.30;99.90
6377;DHT22;3221;48.858;10.128;2023-01-31T09:21:13;0.30;99.90
6377;DHT22;3221;48.858;10.128;2023-01-31T09:23:41;0.30;99.90
6377;DHT22;3221;48.858;10.128;2023-01-31T09:26:10;0.30;99.90
6377;DHT22;3221;48.858;10.128;2023-01-31T09:28:37;0.40;99.90
6377;DHT22;3221;48.858;10.128;2023-01-31T09:31:09;0.30;99.90
6377;DHT22;3221;48.858;10.128;2023-01-31T09:33:36;0.30;99.90
6377;DHT22;3221;48.858;10.128;2023-01-31T09:36:09;0.30;99.90
6377;DHT22;3221;48.858;10.128;2023-01-31T09:38:36;0.30;99.90
6377;DHT22;3221;48.858;10.128;2023-01-31T09:41:05;0.40;99.90
6377;DHT22;3221;48.858;10.128;2023-01-31T09:43:40;0.50;99.90
6377;DHT22;3221;48.858;10.128;2023-01-31T09:46:13;0.40;99.90
6377;DHT22;3221;48.858;10.128;2023-01-31T09:48:44;0.40;99.90
6377;DHT22;3221;48.858;10.128;2023-01-31T09:51:12;0.40;99.90
6377;DHT22;3221;48.858;10.128;2023-01-31T09:53:41;0.40;99.90
6377;DHT22;3221;48.858;10.128;2023-01-31T09:59:06;0.50;99.90
6377;DHT22;3221;48.858;10.128;2023-01-31T10:02:01;0.50;99.90
6377;DHT22;3221;48.858;10.128;2023-01-31T10:04:55;0.50;99.90
6377;DHT22;3221;48.858;10.128;2023-01-31T10:10:37;0.50;99.90
6377;DHT22;3221;48.858;10.128;2023-01-31T10:13:14;0.50;99.90
6377;DHT22;3221;48.858;10.128;2023-01-31T10:15:45;0.50;99.90
6377;DHT22;3221;48.858;10.128;2023-01-31T10:18:17;0.50;99.90
6377;DHT22;3221;48.858;10.128;2023-01-31T10:20:55;0.60;99.90
6377;DHT22;3221;48.858;10.128;2023-01-31T10:23:47;0.50;99.90
6377;DHT22;3221;48.858;10.128;2023-01-31T10:26:36;0.60;99.90
6377;DHT22;3221;48.858;10.128;2023-01-31T10:31:48;0.60;99.90
6377;DHT22;3221;48.858;10.128;2023-01-31T10:34:27;0.60;99.90
6377;DHT22;3221;48.858;10.128;2023-01-31T10:37:32;0.60;99.90
6377;DHT22;3221;48.858;10.128;2023-01-31T10:40:27;0.60;99.90
6377;DHT22;3221;48.858;10.128;2023-01-31T10:43:01;0.70;99.90
6377;DHT22;3221;48.858;10.128;2023-01-31T10:45:28;0.70;99.90
6377;DHT22;3221;48.858;10.128;2023-01-31T10:48:22;0.60;99.90
6377;DHT22;3221;48.858;10.128;2023-01-31T10:51:10;0.70;99.90
6377;DHT22;3221;48.858;10.128;2023-01-31T10:54:16;0.60;99.90
6377;DHT22;3221;48.858;10.128;2023-01-31T10:56:46;0.70;99.90
6377;DHT22;3221;48.858;10.128;2023-01-31T11:01:49;0.70;99.90
6377;DHT22;3221;48.858;10.128;2023-01-31T11:06:50;0.80;99.90
6377;DHT22;3221;48.858;10.128;2023-01-31T11:09:17;0.80;99.90
6377;DHT22;3221;48.858;10.128;2023-01-31T11:11:59;0.80;99.90
6377;DHT22;3221;48.858;10.128;2023-01-31T11:14:26;0.80;99.90
6377;DHT22;3221;48.858;10.128;2023-01-31T11:17:06;0.80;99.90
6377;DHT22;3221;48.858;10.128;2023-01-31T11:19:37;0.90;99.90
6377;DHT22;3221;48.858;10.128;2023-01-31T11:22:07;0.80;99.90
6377;DHT22;3221;48.858;10.128;2023-01-31T11:24:37;0.90;99.90
6377;DHT22;3221;48.858;10.128;2023-01-31T11:27:10;0.90;99.90
6377;DHT22;3221;48.858;10.128;2023-01-31T11:29:49;0.80;99.90
6377;DHT22;3221;48.858;10.128;2023-01-31T11:32:19;0.90;99.90
6377;DHT22;3221;48.858;10.128;2023-01-31T11:35:21;0.80;99.90
6377;DHT22;3221;48.858;10.128;2023-01-31T11:37:53;0.90;99.90
6377;DHT22;3221;48.858;10.128;2023-01-31T11:40:26;0.90;99.90
6377;DHT22;3221;48.858;10.128;2023-01-31T11:42:58;1.00;99.90
6377;DHT22;3221;48.858;10.128;2023-01-31T11:45:36;1.10;99.90
6377;DHT22;3221;48.858;10.128;2023-01-31T11:48:06;1.10;99.90
6377;DHT22;3221;48.858;10.128;2023-01-31T11:50:40;1.10;99.90
6377;DHT22;3221;48.858;10.128;2023-01-31T11:53:20;1.10;99.90
6377;DHT22;3221;48.858;10.128;2023-01-31T11:55:50;1.10;99.90
6377;DHT22;3221;48.858;10.128;2023-01-31T11:58:30;1.10;99.90
6377;DHT22;3221;48.858;10.128;2023-01-31T12:01:00;1.10;99.90
6377;DHT22;3221;48.858;10.128;2023-01-31T12:03:28;1.10;99.90
6377;DHT22;3221;48.858;10.128;2023-01-31T12:08:34;1.20;99.90
6377;DHT22;3221;48.858;10.128;2023-01-31T12:13:52;1.10;99.90
6377;DHT22;3221;48.858;10.128;2023-01-31T12:16:21;1.10;99.90
6377;DHT22;3221;48.858;10.128;2023-01-31T12:21:40;1.10;99.90
6377;DHT22;3221;48.858;10.128;2023-01-31T12:24:23;1.10;99.90
6377;DHT22;3221;48.858;10.128;2023-01-31T12:32:50;1.10;99.90
6377;DHT22;3221;48.858;10.128;2023-01-31T12:38:25;1.10;99.90
6377;DHT22;3221;48.858;10.128;2023-01-31T12:43:41;1.10;99.90
6377;DHT22;3221;48.858;10.128;2023-01-31T13:00:36;1.20;99.90
6377;DHT22;3221;48.858;10.128;2023-01-31T13:06:22;1.20;99.90
6377;DHT22;3221;48.858;10.128;2023-01-31T13:09:00;1.20;99.90
6377;DHT22;3221;48.858;10.128;2023-01-31T13:11:46;1.10;99.90
6377;DHT22;3221;48.858;10.128;2023-01-31T13:14:18;1.20;99.90
6377;DHT22;3221;48.858;10.128;2023-01-31T13:16:51;1.30;99.90
6377;DHT22;3221;48.858;10.128;2023-01-31T13:21:58;1.20;99.90
6377;DHT22;3221;48.858;10.128;2023-01-31T13:24:37;1.20;99.90
6377;DHT22;3221;48.858;10.128;2023-01-31T13:27:14;1.10;99.90
6377;DHT22;3221;48.858;10.128;2023-01-31T13:29:48;1.10;99.90
6377;DHT22;3221;48.858;10.128;2023-01-31T13:32:26;1.20;99.90
6377;DHT22;3221;48.858;10.128;2023-01-31T13:35:02;1.20;99.90
6377;DHT22;3221;48.858;10.128;2023-01-31T13:37:34;1.10;99.90
6377;DHT22;3221;48.858;10.128;2023-01-31T13:40:08;1.20;99.90
6377;DHT22;3221;48.858;10.128;2023-01-31T13:42:40;1.20;99.90
6377;DHT22;3221;48.858;10.128;2023-01-31T13:45:07;1.20;99.90
6377;DHT22;3221;48.858;10.128;2023-01-31T13:47:49;1.20;99.90
6377;DHT22;3221;48.858;10.128;2023-01-31T13:50:37;1.20;99.90
6377;DHT22;3221;48.858;10.128;2023-01-31T13:53:12;1.10;99.90
6377;DHT22;3221;48.858;10.128;2023-01-31T13:55:43;1.10;99.90
6377;DHT22;3221;48.858;10.128;2023-01-31T13:58:18;1.20;99.90
6377;DHT22;3221;48.858;10.128;2023-01-31T14:06:20;1.10;99.90
6377;DHT22;3221;48.858;10.128;2023-01-31T14:13:46;1.20;99.90
6377;DHT22;3221;48.858;10.128;2023-01-31T14:18:59;1.30;99.90
6377;DHT22;3221;48.858;10.128;2023-01-31T14:23:53;1.10;99.90
6377;DHT22;3221;48.858;10.128;2023-01-31T14:29:18;1.10;99.90
6377;DHT22;3221;48.858;10.128;2023-01-31T14:31:47;1.20;99.90
6377;DHT22;3221;48.858;10.128;2023-01-31T14:34:29;1.20;99.90
6377;DHT22;3221;48.858;10.128;2023-01-31T14:51:07;1.30;99.90
6377;DHT22;3221;48.858;10.128;2023-01-31T14:56:50;1.20;99.90
6377;DHT22;3221;48.858;10.128;2023-01-31T14:59:26;1.20;99.90
6377;DHT22;3221;48.858;10.128;2023-01-31T15:01:54;1.20;99.90
6377;DHT22;3221;48.858;10.128;2023-01-31T15:04:24;1.10;99.90
6377;DHT22;3221;48.858;10.128;2023-01-31T15:06:52;1.20;99.90
6377;DHT22;3221;48.858;10.128;2023-01-31T15:11:49;1.10;99.90
6377;DHT22;3221;48.858;10.128;2023-01-31T15:14:37;1.10;99.90
6377;DHT22;3221;48.858;10.128;2023-01-31T15:17:22;1.20;99.90
6377;DHT22;3221;48.858;10.128;2023-01-31T15:22:41;1.20;99.90
6377;DHT22;3221;48.858;10.128;2023-01-31T15:25:22;1.20;99.90
6377;DHT22;3221;48.858;10.128;2023-01-31T15:27:51;1.20;99.90
6377;DHT22;3221;48.858;10.128;2023-01-31T15:30:21;1.20;99.90
6377;DHT22;3221;48.858;10.128;2023-01-31T15:32:52;1.20;99.90
6377;DHT22;3221;48.858;10.128;2023-01-31T15:41:15;1.10;99.90
6377;DHT22;3221;48.858;10.128;2023-01-31T15:43:44;1.10;99.90
6377;DHT22;3221;48.858;10.128;2023-01-31T15:46:13;1.10;99.90
6377;DHT22;3221;48.858;10.128;2023-01-31T15:48:40;1.10;99.90
6377;DHT22;3221;48.858;10.128;2023-01-31T15:51:11;1.10;99.90
6377;DHT22;3221;48.858;10.128;2023-01-31T15:53:40;1.10;99.90
6377;DHT22;3221;48.858;10.128;2023-01-31T15:56:22;1.10;99.90
6377;DHT22;3221;48.858;10.128;2023-01-31T15:58:52;1.20;99.90
6377;DHT22;3221;48.858;10.128;2023-01-31T16:01:19;1.20;99.90
6377;DHT22;3221;48.858;10.128;2023-01-31T16:03:54;1.20;99.90
6377;DHT22;3221;48.858;10.128;2023-01-31T16:06:38;1.20;99.90
6377;DHT22;3221;48.858;10.128;2023-01-31T16:09:06;1.10;99.90
6377;DHT22;3221;48.858;10.128;2023-01-31T16:11:47;1.10;99.90
6377;DHT22;3221;48.858;10.128;2023-01-31T16:14:15;1.10;99.90
6377;DHT22;3221;48.858;10.128;2023-01-31T16:16:44;1.10;99.90
6377;DHT22;3221;48.858;10.128;2023-01-31T16:19:18;1.10;99.90
6377;DHT22;3221;48.858;10.128;2023-01-31T16:21:48;1.10;99.90
6377;DHT22;3221;48.858;10.128;2023-01-31T16:24:17;1.10;99.90
6377;DHT22;3221;48.858;10.128;2023-01-31T16:27:06;1.10;99.90
6377;DHT22;3221;48.858;10.128;2023-01-31T16:29:41;1.10;99.90
6377;DHT22;3221;48.858;10.128;2023-01-31T16:35:05;1.10;99.90
6377;DHT22;3221;48.858;10.128;2023-01-31T16:37:36;1.10;99.90
6377;DHT22;3221;48.858;10.128;2023-01-31T16:40:21;1.10;99.90
6377;DHT22;3221;48.858;10.128;2023-01-31T16:43:07;1.00;99.90
6377;DHT22;3221;48.858;10.128;2023-01-31T16:45:35;1.00;99.90
6377;DHT22;3221;48.858;10.128;2023-01-31T16:48:24;1.10;99.90
6377;DHT22;3221;48.858;10.128;2023-01-31T16:50:53;1.10;99.90
6377;DHT22;3221;48.858;10.128;2023-01-31T16:53:32;1.00;99.90
6377;DHT22;3221;48.858;10.128;2023-01-31T16:56:18;1.10;99.90
6377;DHT22;3221;48.858;10.128;2023-01-31T16:58:50;1.20;99.90
6377;DHT22;3221;48.858;10.128;2023-01-31T17:01:30;1.20;99.90
6377;DHT22;3221;48.858;10.128;2023-01-31T17:04:17;1.10;99.90
6377;DHT22;3221;48.858;10.128;2023-01-31T17:06:51;1.00;99.90
6377;DHT22;3221;48.858;10.128;2023-01-31T17:09:26;1.10;99.90
6377;DHT22;3221;48.858;10.128;2023-01-31T17:11:54;1.10;99.90
6377;DHT22;3221;48.858;10.128;2023-01-31T17:14:22;1.10;99.90
6377;DHT22;3221;48.858;10.128;2023-01-31T17:16:51;1.10;99.90
6377;DHT22;3221;48.858;10.128;2023-01-31T17:19:19;1.10;99.90
6377;DHT22;3221;48.858;10.128;2023-01-31T17:21:46;1.10;99.90
6377;DHT22;3221;48.858;10.128;2023-01-31T17:24:18;1.00;99.90
6377;DHT22;3221;48.858;10.128;2023-01-31T17:26:45;1.00;99.90
6377;DHT22;3221;48.858;10.128;2023-01-31T17:29:12;1.00;99.90
6377;DHT22;3221;48.858;10.128;2023-01-31T17:31:39;1.00;99.90
6377;DHT22;3221;48.858;10.128;2023-01-31T17:34:12;1.00;99.90
6377;DHT22;3221;48.858;10.128;2023-01-31T17:36:39;1.00;99.90
6377;DHT22;3221;48.858;10.128;2023-01-31T17:39:06;1.00;99.90
6377;DHT22;3221;48.858;10.128;2023-01-31T17:41:33;1.00;99.90
6377;DHT22;3221;48.858;10.128;2023-01-31T17:44:00;1.00;99.90
6377;DHT22;3221;48.858;10.128;2023-01-31T17:46:32;1.00;99.90
6377;DHT22;3221;48.858;10.128;2023-01-31T17:48:59;0.90;99.90
6377;DHT22;3221;48.858;10.128;2023-01-31T17:51:26;1.00;99.90
6377;DHT22;3221;48.858;10.128;2023-01-31T17:53:53;1.10;99.90
6377;DHT22;3221;48.858;10.128;2023-01-31T17:56:19;1.10;99.90
6377;DHT22;3221;48.858;10.128;2023-01-31T17:58:46;1.10;99.90
6377;DHT22;3221;48.858;10.128;2023-01-31T18:01:15;1.10;99.90
6377;DHT22;3221;48.858;10.128;2023-01-31T18:03:42;1.00;99.90
6377;DHT22;3221;48.858;10.128;2023-01-31T18:06:10;1.00;99.90
6377;DHT22;3221;48.858;10.128;2023-01-31T18:08:37;1.00;99.90
6377;DHT22;3221;48.858;10.128;2023-01-31T18:11:10;0.90;99.90
6377;DHT22;3221;48.858;10.128;2023-01-31T18:13:37;1.00;99.90
6377;DHT22;3221;48.858;10.128;2023-01-31T18:16:13;0.90;99.90
6377;DHT22;3221;48.858;10.128;2023-01-31T18:18:41;1.00;99.90
6377;DHT22;3221;48.858;10.128;2023-01-31T18:21:16;1.00;99.90
6377;DHT22;3221;48.858;10.128;2023-01-31T18:23:51;1.00;99.90
6377;DHT22;3221;48.858;10.128;2023-01-31T18:26:18;1.00;99.90
6377;DHT22;3221;48.858;10.128;2023-01-31T18:28:45;1.00;99.90
6377;DHT22;3221;48.858;10.128;2023-01-31T18:31:13;1.00;99.90
6377;DHT22;3221;48.858;10.128;2023-01-31T18:33:43;1.00;99.90
6377;DHT22;3221;48.858;10.128;2023-01-31T18:36:13;1.00;99.90
6377;DHT22;3221;48.858;10.128;2023-01-31T18:38:41;1.00;99.90
6377;DHT22;3221;48.858;10.128;2023-01-31T18:41:11;1.00;99.90
6377;DHT22;3221;48.858;10.128;2023-01-31T18:43:41;1.00;99.90
6377;DHT22;3221;48.858;10.128;2023-01-31T18:46:08;0.90;99.90
6377;DHT22;3221;48.858;10.128;2023-01-31T18:48:36;0.90;99.90
6377;DHT22;3221;48.858;10.128;2023-01-31T18:51:06;0.90;99.90
6377;DHT22;3221;48.858;10.128;2023-01-31T18:53:36;0.90;99.90
6377;DHT22;3221;48.858;10.128;2023-01-31T18:56:10;0.90;99.90
6377;DHT22;3221;48.858;10.128;2023-01-31T18:58:39;0.90;99.90
6377;DHT22;3221;48.858;10.128;2023-01-31T19:01:18;1.00;99.90
6377;DHT22;3221;48.858;10.128;2023-01-31T19:03:46;1.00;99.90